Latest Weather Observations for Gabo Island

IDN60801

Issued at 10:32 am EST Monday 16 September 2019 (issued every 10 minutes, with the page automatically refreshed every 10 minutes)

About weather observations | Map of weather stations | Latest weather observations for NSW | Other Formats
Station Details ID: 084016 Name: GABO ISLAND LIGHTHOUSE Lat: -37.57 Lon: 149.92 Height: 15.2 m
Data from the previous 72 hours. | See also: Recent months at Gabo Island
Date/Time
EST
Temp
°C
App
Temp
°C
Dew
Point
°C
Rel
Hum
%
Delta-T
°C
Wind Press
QNH
hPa
Press
MSL
hPa
Rain since
9am
mm
Dir  Spd
km/h
Gust
km/h
Spd
kts
Gust
kts
16/10:30am 11.5 3.3 8.0 79 1.7 W 41 54 22 29 1017.2 1017.2 0.0
16/10:00am 10.7 2.8 7.8 82 1.4 W 39 48 21 26 1017.2 1017.2 0.0
16/09:30am 10.6 2.8 8.1 84 1.2 W 39 50 21 27 1017.5 1017.5 0.0
16/09:00am 10.6 2.8 8.3 86 1.1 WSW 39 46 21 25 1017.5 1017.5 0.8
16/08:30am 11.3 3.2 8.5 83 1.4 WSW 41 50 22 27 1017.1 1017.1 0.6
16/08:04am 11.1 2.7 8.9 86 1.1 WSW 43 61 23 33 1017.3 1017.3 0.6
16/08:00am 11.3 3.4 9.3 87 1.0 WSW 41 50 22 27 1017.3 1017.3 0.6
16/07:42am 11.3 3.2 8.7 84 1.3 WSW 41 59 22 32 1016.5 1016.5 0.6
16/07:30am 11.4 3.7 8.8 84 1.3 WSW 39 54 21 29 1016.4 1016.4 0.6
16/07:00am 11.2 2.9 9.2 87 1.0 WSW 43 54 23 29 1015.8 1015.8 0.6
16/06:36am 12.0 2.6 10.0 87 1.0 WSW 50 70 27 38 1016.0 1016.0 0.4
16/06:30am 12.4 4.3 10.7 89 0.9 WSW 44 57 24 31 1016.0 1016.0 0.4
16/06:00am 12.6 3.0 10.7 88 1.0 WSW 52 65 28 35 1014.9 1014.9 0.2
16/05:30am 12.8 3.7 11.1 89 0.9 SW 50 61 27 33 1013.9 1013.9 0.0
16/05:19am 13.3 3.3 12.0 92 0.7 SW 56 74 30 40 1013.7 1013.7 0.0
16/05:08am 14.3 6.6 12.1 87 1.2 SW 44 70 24 38 1013.3 1013.3 0.0
16/05:07am 14.7 7.2 12.1 84 1.4 SW 43 69 23 37 1013.3 1013.3 0.0
16/05:00am 15.0 8.6 11.9 82 1.7 WSW 37 46 20 25 1013.4 1013.4 0.0
16/04:51am 15.2 10.6 12.3 83 1.6 WSW 28 43 15 23 1013.2 1013.2 0.0
16/04:30am 15.4 13.0 11.3 76 2.2 SW 15 20 8 11 1012.6 1012.6 0.0
16/04:00am 15.0 13.2 12.2 83 1.5 S 13 17 7 9 1011.7 1011.7 0.0
16/03:30am 15.2 10.0 11.7 79 1.9 SSW 30 35 16 19 1011.3 1011.3 0.0
16/03:06am 14.9 13.0 11.8 82 1.7 NE 13 35 7 19 1011.1 1011.1 0.0
16/03:00am 14.4 12.3 11.0 80 1.8 NNE 13 17 7 9 1010.7 1010.7 0.0
16/02:30am 13.8 11.0 10.1 78 1.9 N 15 17 8 9 1010.8 1010.8 0.0
16/02:00am 14.5 12.5 10.1 75 2.3 N 11 13 6 7 1011.4 1011.4 0.0
16/01:30am 13.9 11.9 10.0 77 2.0 N 11 13 6 7 1012.0 1012.0 0.0
16/01:00am 14.3 12.3 10.1 76 2.2 N 11 13 6 7 1012.5 1012.5 0.0
16/12:30am 14.4 12.8 10.2 76 2.2 NW 9 11 5 6 1013.3 1013.3 0.0
16/12:00am 15.3 14.2 10.8 74 2.4 W 7 11 4 6 1014.1 1014.1 0.0
 
Date/Time
EST
Temp
°C
App
Temp
°C
Dew
Point
°C
Rel
Hum
%
Delta-T
°C
Wind Press
QNH
hPa
Press
MSL
hPa
Rain since
9am
mm
Dir  Spd
km/h
Gust
km/h
Spd
kts
Gust
kts
15/11:30pm 15.8 13.1 11.7 76 2.2 SW 17 20 9 11 1014.9 1014.9 0.0
15/11:00pm 15.8 14.9 11.5 75 2.3 W 7 9 4 5 1015.3 1015.3 0.0
15/10:30pm 15.7 13.9 12.0 78 2.0 WSW 13 15 7 8 1015.5 1015.5 0.0
15/10:00pm 15.9 14.8 12.0 77 2.1 WNW 9 11 5 6 1015.1 1015.1 0.0
15/09:30pm 16.0 15.0 12.4 79 2.0 W 9 13 5 7 1015.3 1015.3 0.0
15/09:00pm 16.8 12.0 11.6 71 2.8 SW 28 32 15 17 1015.2 1015.2 0.0
15/08:30pm 17.2 12.0 11.7 70 3.0 SW 30 33 16 18 1014.9 1014.9 0.0
15/08:12pm 18.9 13.8 9.2 53 5.1 W 26 48 14 26 1014.4 1014.4 0.0
15/08:00pm 21.3 16.8 6.2 37 7.6 NW 19 28 10 15 1013.9 1013.9 0.0
15/07:30pm 21.5 17.4 6.0 36 7.8 NW 17 24 9 13 1013.5 1013.5 0.0
15/07:00pm 21.1 17.2 7.0 40 7.2 NNW 17 24 9 13 1013.2 1013.2 0.0
15/06:30pm 17.6 15.2 10.1 61 4.0 N 13 17 7 9 1013.0 1013.0 0.0
15/06:00pm 17.7 15.3 8.8 56 4.6 N 11 15 6 8 1013.2 1013.2 0.0
15/05:30pm 18.5 16.4 9.8 57 4.6 N 11 13 6 7 1013.3 1013.3 0.0
15/05:00pm 19.8 17.4 8.7 48 5.8 N 11 17 6 9 1013.6 1013.6 0.0
15/04:30pm 19.4 15.7 7.9 47 5.9 NNE 17 26 9 14 1013.3 1013.3 0.0
15/04:00pm 18.9 14.8 8.7 51 5.3 NNE 20 26 11 14 1013.5 1013.5 0.0
15/03:30pm 19.1 15.1 8.3 49 5.6 NNE 19 22 10 12 1013.8 1013.8 0.0
15/03:00pm 18.6 13.7 8.6 52 5.2 NE 24 28 13 15 1014.1 1014.1 0.0
15/02:30pm 18.2 14.2 9.2 55 4.7 NE 20 24 11 13 1014.4 1014.4 0.0
15/02:00pm 18.7 15.9 11.2 61 4.1 NNE 17 22 9 12 1014.8 1014.8 0.0
15/01:30pm 17.5 15.6 11.8 69 3.1 NNE 13 15 7 8 1015.1 1015.1 0.0
15/01:00pm 17.8 15.8 11.4 66 3.5 NNE 13 15 7 8 1015.6 1015.6 0.0
15/12:30pm 17.8 15.4 11.4 66 3.5 NE 15 20 8 11 1016.0 1016.0 0.0
15/12:00pm 19.0 16.1 9.8 55 4.9 NNE 15 20 8 11 1016.4 1016.4 0.0
15/11:30am 20.3 18.2 8.2 45 6.3 NNE 9 13 5 7 1016.9 1016.9 0.0
15/11:00am 17.8 16.0 9.6 58 4.3 NNE 9 11 5 6 1017.1 1017.1 0.0
15/10:30am 16.1 14.8 10.0 67 3.2 NNE 7 9 4 5 1017.5 1017.5 0.0
15/10:00am 15.9 14.7 10.2 69 3.0 ENE 7 9 4 5 1018.0 1018.0 0.0
15/09:30am 14.7 13.6 10.7 77 2.1 NE 7 9 4 5 1018.4 1018.4 0.0
15/09:00am 13.8 12.0 9.5 75 2.2 NNE 9 11 5 6 1018.6 1018.6 0.0
15/08:30am 13.6 13.1 9.5 76 2.1 N 2 7 1 4 1018.8 1018.8 0.0
15/08:00am 12.8 12.7 9.4 80 1.7 CALM 0 0 0 0 1018.8 1018.8 0.0
15/07:30am 11.9 10.3 8.7 81 1.6 WNW 7 9 4 5 1018.9 1018.9 0.0
15/07:00am 11.1 9.5 8.9 86 1.1 WNW 7 11 4 6 1018.7 1018.7 0.0
15/06:30am 10.6 8.6 8.8 89 0.9 W 9 11 5 6 1018.7 1018.7 0.0
15/06:00am 10.7 9.3 8.9 89 0.9 N 6 7 3 4 1018.3 1018.3 0.0
15/05:30am 10.7 8.3 8.7 87 1.0 NNE 11 13 6 7 1018.0 1018.0 0.0
15/05:00am 9.8 7.2 6.1 78 1.7 NNE 9 13 5 7 1018.1 1018.1 0.0
15/04:30am 9.1 8.0 7.0 87 1.0 NNE 2 7 1 4 1018.3 1018.3 0.0
15/04:00am 9.4 7.5 7.5 88 0.9 W 7 13 4 7 1018.5 1018.5 0.0
15/03:30am 9.2 6.9 7.5 89 0.8 W 9 13 5 7 1018.5 1018.5 0.0
15/03:00am 9.2 7.0 7.7 90 0.7 W 9 11 5 6 1018.6 1018.6 0.0
15/02:30am 9.4 7.4 7.1 85 1.1 WNW 7 7 4 4 1018.7 1018.7 0.0
15/02:00am 8.6 6.6 7.3 91 0.6 WNW 7 11 4 6 1019.0 1019.0 0.0
15/01:30am 8.2 5.3 6.7 90 0.7 W 11 13 6 7 1019.6 1019.6 0.0
15/01:00am 7.5 4.9 6.2 91 0.6 WSW 9 11 5 6 1019.6 1019.6 0.0
15/12:30am 9.2 7.3 7.7 90 0.7 W 7 9 4 5 1019.8 1019.8 0.0
15/12:00am 9.9 7.7 7.8 87 1.0 W 9 11 5 6 1020.0 1020.0 0.0
 
Date/Time
EST
Temp
°C
App
Temp
°C
Dew
Point
°C
Rel
Hum
%
Delta-T
°C
Wind Press
QNH
hPa
Press
MSL
hPa
Rain since
9am
mm
Dir  Spd
km/h
Gust
km/h
Spd
kts
Gust
kts
14/11:30pm 9.8 7.6 7.7 87 1.0 N 9 11 5 6 1020.5 1020.5 0.0
14/11:00pm 9.6 6.1 7.3 85 1.1 N 15 17 8 9 1020.7 1020.7 0.0
14/10:30pm 9.1 6.4 7.2 88 0.9 N 11 13 6 7 1021.0 1021.0 0.0
14/10:00pm 9.0 5.7 6.6 85 1.1 N 13 17 7 9 1021.4 1021.4 0.0
14/09:30pm 9.8 7.5 7.3 84 1.2 NNW 9 13 5 7 1021.6 1021.6 0.0
14/09:00pm 10.8 7.4 7.5 80 1.6 W 15 19 8 10 1021.9 1021.9 0.0
14/08:30pm 11.8 7.5 7.9 77 1.9 W 20 24 11 13 1022.1 1022.1 0.0
14/08:00pm 11.8 7.5 7.9 77 1.9 W 20 28 11 15 1022.1 1022.1 0.0
14/07:30pm 12.2 8.0 8.1 76 2.0 WSW 20 24 11 13 1022.1 1022.1 0.0
14/07:00pm 12.6 7.2 8.1 74 2.2 WSW 26 30 14 16 1022.0 1022.0 0.0
14/06:30pm 12.9 8.1 8.7 75 2.1 SW 24 32 13 17 1022.1 1022.1 0.0
14/06:00pm 13.3 6.4 8.7 73 2.3 SW 35 43 19 23 1022.0 1022.0 0.0
14/05:30pm 13.4 5.2 8.4 72 2.5 SW 41 46 22 25 1021.7 1021.7 0.0
14/05:00pm 13.5 4.9 8.3 71 2.6 SW 43 50 23 27 1021.5 1021.5 0.0
14/04:30pm 13.5 4.1 7.3 66 3.0 SW 46 54 25 29 1021.4 1021.4 0.0
14/04:00pm 13.7 3.6 7.6 66 3.0 SW 50 57 27 31 1021.3 1021.3 0.0
14/03:30pm 13.7 3.6 7.3 65 3.1 SW 50 56 27 30 1021.3 1021.3 0.0
14/03:00pm 13.8 5.4 13.6 99 0.1 SW 50 57 27 31 1021.5 1021.5 0.0
14/02:30pm 13.7 4.5 13.3 97 0.2 SW 54 61 29 33 1021.6 1021.6 0.0
14/02:00pm 13.7 4.6 13.7 100 0.0 SW 54 63 29 34 1021.8 1021.8 0.0
14/01:30pm 14.3 6.2 14.3 100 0.0 SW 50 59 27 32 1022.1 1022.1 0.0
14/01:00pm 14.7 6.3 13.6 93 0.6 SW 50 59 27 32 1022.3 1022.3 0.0
14/12:30pm 14.7 5.1 6.4 57 4.0 SW 46 56 25 30 1022.4 1022.4 0.0
14/12:00pm 15.1 6.1 6.4 56 4.2 SW 43 54 23 29 1022.5 1022.5 0.0
14/11:30am 14.9 5.3 6.1 55 4.2 SW 46 56 25 30 1022.6 1022.6 0.0
14/11:00am 15.1 6.8 5.9 54 4.4 WSW 39 50 21 27 1022.8 1022.8 0.0
14/10:30am 14.7 5.2 5.1 52 4.5 WSW 44 57 24 31 1022.9 1022.9 0.0
14/10:00am 14.2 4.8 5.2 54 4.2 WSW 44 56 24 30 1023.1 1023.1 0.0
14/09:38am 13.7 3.9 5.1 56 4.0 WSW 46 65 25 35 1023.1 1023.1 0.0
14/09:30am 14.0 4.4 6.2 59 3.7 WSW 46 59 25 32 1023.2 1023.2 0.0
14/09:00am 13.4 4.1 6.0 61 3.5 WSW 44 56 24 30 1023.1 1023.1 0.0
14/08:30am 13.2 3.2 6.0 61 3.4 WSW 48 57 26 31 1022.9 1022.9 0.0
14/08:00am 12.9 3.8 6.8 66 2.9 WSW 44 56 24 30 1022.8 1022.8 0.0
14/07:30am 13.3 3.8 6.8 64 3.1 WSW 46 57 25 31 1022.6 1022.6 0.0
14/07:00am 12.8 3.4 5.2 60 3.5 WSW 44 57 24 31 1022.2 1022.2 0.0
14/06:30am 12.7 2.7 6.1 64 3.1 WSW 48 61 26 33 1021.9 1021.9 0.0
14/06:00am 12.5 4.4 6.8 68 2.7 WSW 39 48 21 26 1021.7 1021.7 0.0
14/05:30am 12.8 2.3 7.2 69 2.7 WSW 52 70 28 38 1021.4 1021.4 0.0
14/05:00am 12.6 0.9 5.2 60 3.4 WSW 56 69 30 37 1020.9 1020.9 0.0
14/04:30am 12.7 0.2 6.1 64 3.1 WSW 61 78 33 42 1020.4 1020.4 0.0
14/04:00am 12.8 2.0 7.7 71 2.5 WSW 54 70 29 38 1019.9 1019.9 0.0
14/03:30am 13.0 1.0 8.4 73 2.3 WSW 61 83 33 45 1019.5 1019.5 0.0
14/03:22am 13.1 1.1 8.3 72 2.4 SW 61 80 33 43 1019.3 1019.3 0.0
14/03:00am 13.3 1.2 7.6 68 2.8 SW 61 78 33 42 1019.7 1019.7 0.0
14/02:30am 13.3 1.2 7.6 68 2.8 WSW 61 82 33 44 1019.6 1019.6 0.0
14/02:01am 13.6 2.6 7.0 64 3.2 WSW 54 74 29 40 1019.7 1019.7 0.0
14/02:00am 13.6 2.6 7.0 64 3.2 WSW 54 65 29 35 1019.7 1019.7 0.0
14/01:30am 13.6 1.9 6.2 61 3.5 WSW 57 76 31 41 1019.7 1019.7 0.0
14/01:05am 13.8 2.4 7.5 66 3.1 WSW 57 76 31 41 1019.5 1019.5 0.0
14/01:00am 13.6 1.9 7.7 67 2.9 WSW 59 76 32 41 1019.5 1019.5 0.0
14/12:30am 14.0 4.1 8.4 69 2.8 WSW 50 69 27 37 1019.6 1019.6 0.0
14/12:18am 14.0 7.6 8.6 70 2.7 WSW 32 52 17 28 1019.8 1019.8 0.0
14/12:00am 13.4 7.3 6.7 64 3.2 W 28 37 15 20 1019.6 1019.6 0.0
 
Date/Time
EST
Temp
°C
App
Temp
°C
Dew
Point
°C
Rel
Hum
%
Delta-T
°C
Wind Press
QNH
hPa
Press
MSL
hPa
Rain since
9am
mm
Dir  Spd
km/h
Gust
km/h
Spd
kts
Gust
kts
13/11:30pm 13.2 7.1 6.7 64 3.1 W 28 35 15 19 1019.4 1019.4 0.0
13/11:00pm 13.3 7.5 6.1 61 3.4 W 26 32 14 17 1019.5 1019.5 0.0
13/10:30pm 13.0 9.0 6.7 65 3.0 WNW 17 22 9 12 1019.4 1019.4 0.0
13/10:00pm 12.7 9.0 6.4 65 3.0 WNW 15 20 8 11 1019.4 1019.4 0.0
13/09:30pm 12.8 9.7 7.2 69 2.7 NW 13 19 7 10 1019.5 1019.5 0.0
13/09:00pm 11.8 9.2 7.9 77 1.9 NW 11 17 6 9 1019.8 1019.8 0.0
13/08:30pm 10.8 8.5 7.5 80 1.6 WNW 9 11 5 6 1020.0 1020.0 0.0
13/08:00pm 11.0 8.9 8.1 82 1.4 WNW 9 13 5 7 1020.1 1020.1 0.0
13/07:30pm 10.1 7.5 7.6 84 1.2 N 11 13 6 7 1019.9 1019.9 0.0
13/07:00pm 11.1 7.4 7.8 80 1.6 NNE 17 20 9 11 1019.7 1019.7 0.0
13/06:30pm 11.5 8.9 7.8 78 1.8 N 11 15 6 8 1019.8 1019.8 0.0
13/06:00pm 11.3 9.6 7.6 78 1.8 N 6 7 3 4 1019.6 1019.6 0.0
13/05:30pm 11.9 10.1 7.8 76 2.0 W 7 9 4 5 1020.0 1020.0 0.0
13/05:00pm 12.5 9.5 7.6 72 2.4 SW 13 17 7 9 1019.8 1019.8 0.0
13/04:30pm 12.8 8.1 7.9 72 2.4 SW 22 28 12 15 1020.5 1020.5 0.0
13/04:00pm 12.8 8.5 7.9 72 2.4 SSW 20 26 11 14 1020.6 1020.6 0.0
13/03:30pm 12.9 8.6 7.1 68 2.8 SSW 19 20 10 11 1020.4 1020.4 0.0
13/03:00pm 13.2 9.3 7.0 66 3.0 SSW 17 20 9 11 1020.3 1020.3 0.0
13/02:30pm 13.0 8.2 7.2 68 2.8 SSW 22 28 12 15 1020.4 1020.4 0.0
13/02:00pm 13.2 7.9 6.7 64 3.1 SSW 24 28 13 15 1020.2 1020.2 0.0
13/01:30pm 14.1 9.7 7.4 64 3.3 SSW 20 24 11 13 1020.3 1020.3 0.0
13/01:00pm 14.0 9.2 7.2 63 3.3 SSW 22 26 12 14 1020.6 1020.6 0.0
13/12:30pm 13.7 9.1 6.6 62 3.4 SSW 20 26 11 14 1021.1 1021.1 0.0
13/12:00pm 13.1 8.0 5.9 61 3.4 SSW 22 28 12 15 1022.1 1022.1 0.0
13/11:30am 13.4 9.2 5.7 59 3.6 SW 17 20 9 11 1022.4 1022.4 0.0
13/11:00am 13.6 9.4 5.7 59 3.7 WSW 17 20 9 11 1022.7 1022.7 0.0

Other formats

Comma delimited format used in spreadsheet applications
http://www.bom.gov.au/fwo/IDN60801/IDN60801.94933.axf

JavaScript Object Notation format (JSON) in row-major order
http://www.bom.gov.au/fwo/IDN60801/IDN60801.94933.json

Data quality

Most of these data are generated automatically and are frequently updated. Quality checks on data are not normally performed. It is possible for incorrect values to appear. Refer to information at About Latest Weather Observations and please check the disclaimer before using these data.